Latest Weather Observations for Cunderdin Airport

IDW60801

Issued at 1:32 pm WST Saturday 5 September 2015 (issued every 30 minutes, with the page automatically refreshed every 10 minutes)

About weather observations | Map of weather stations | Latest weather observations for WA | Other Formats
Station Details ID: 010286 Name: CUNDERDIN AIRFIELD Lat: -31.62 Lon: 117.22 Height: 216.7 m
Data from the previous 72 hours. | See also: Recent months at Cunderdin Airport
Date/Time
WST
Temp
°C
App
Temp
°C
Dew
Point
Rel
Hum
%
Delta-T
°C
Wind Press
QNH
hPa
Press
MSL
hPa
Rain
since 9 am
mm
Dir
 
Spd
km/h
Gust
km/h
Spd
kts
Gust
kts
05/01:30pm 18.3 12.7 11.4 64 3.8 SW 32 41 17 22 1020.7 1020.6 0.0
05/01:00pm 19.2 13.4 10.7 58 4.6 WSW 32 43 17 23 1020.8 1020.8 0.0
05/12:30pm 18.5 14.0 10.1 58 4.5 WSW 24 33 13 18 1020.7 1020.6 0.0
05/12:00pm 18.4 14.4 10.5 60 4.3 WSW 22 32 12 17 1020.8 1020.8 0.0
05/11:30am 17.1 12.7 10.5 65 3.6 WSW 24 35 13 19 1020.9 1020.9 0.0
05/11:00am 18.1 13.3 10.2 60 4.2 W 26 37 14 20 1020.9 1020.9 0.0
05/10:30am 17.6 13.4 9.8 60 4.2 WSW 22 30 12 16 1021.0 1021.0 0.0
05/10:00am 17.3 12.9 11.8 70 3.0 WSW 26 33 14 18 1021.2 1021.2 0.0
05/09:30am 15.9 12.2 11.5 75 2.4 WSW 22 33 12 18 1021.2 1021.2 0.0
05/09:00am 15.5 12.5 12.4 82 1.7 WSW 20 26 11 14 1021.2 1021.2 0.2
05/08:30am 14.2 11.2 12.1 87 1.1 W 19 24 10 13 1020.9 1020.9 0.2
05/08:00am 13.3 11.7 12.8 97 0.3 W 13 17 7 9 1020.6 1020.5 0.2
05/07:30am 11.9 10.3 11.6 98 0.2 WNW 11 13 6 7 1020.1 1020.0 0.2
05/07:00am 10.6 8.2 10.1 97 0.3 W 13 15 7 8 1019.6 1019.5 0.2
05/06:30am 10.9 8.6 10.4 97 0.3 W 13 17 7 9 1019.1 1019.1 0.2
05/06:00am 11.8 9.8 11.5 98 0.2 WNW 13 15 7 8 1018.8 1018.8 0.2
05/05:30am 12.1 10.2 11.8 98 0.2 W 13 15 7 8 1018.4 1018.4 0.2
05/05:00am 12.3 10.5 12.0 98 0.2 W 13 13 7 7 1018.0 1018.0 0.2
05/04:30am 12.0 10.4 11.5 97 0.3 W 11 13 6 7 1017.5 1017.5 0.2
05/04:00am 12.4 11.3 11.9 97 0.3 WNW 9 11 5 6 1017.3 1017.3 0.2
05/03:30am 12.4 11.3 11.9 97 0.3 WNW 9 11 5 6 1017.1 1017.1 0.2
05/03:00am 12.8 11.0 12.2 96 0.3 W 13 17 7 9 1017.0 1017.0 0.2
05/02:30am 13.0 10.5 12.2 95 0.4 W 17 20 9 11 1017.3 1017.3 0.2
05/02:00am 13.6 11.1 12.2 91 0.8 WNW 17 20 9 11 1017.2 1017.2 0.0
05/01:30am 13.9 11.3 11.9 88 1.1 NNW 17 22 9 12 1017.1 1017.1 0.0
05/01:00am 13.5 11.5 11.6 88 1.0 N 13 20 7 11 1017.1 1017.1 0.0
05/12:30am 13.5 10.7 11.4 87 1.1 N 17 22 9 12 1017.0 1017.0 0.0
05/12:00am 13.2 9.7 10.9 86 1.2 N 20 26 11 14 1017.3 1017.3 0.0
 
Date/Time
WST
Temp
°C
App
Temp
°C
Dew
Point
Rel
Hum
%
Delta-T
°C
Wind Press
QNH
hPa
Press
MSL
hPa
Rain
since 9 am
mm
Dir
 
Spd
km/h
Gust
km/h
Spd
kts
Gust
kts
04/11:30pm 13.0 10.0 10.5 85 1.3 N 17 22 9 12 1017.6 1017.6 0.0
04/11:00pm 12.3 9.9 10.2 87 1.1 N 13 17 7 9 1017.8 1017.8 0.0
04/10:30pm 11.5 9.7 9.6 88 1.0 N 9 11 5 6 1017.9 1017.9 0.0
04/10:00pm 11.4 9.5 9.1 86 1.2 NNW 9 11 5 6 1018.4 1018.4 0.0
04/09:30pm 11.6 9.8 9.3 86 1.2 NNW 9 11 5 6 1018.5 1018.5 0.0
04/09:00pm 11.9 10.5 9.5 85 1.2 W 7 9 4 5 1018.9 1018.9 0.0
04/08:30pm 11.6 9.7 9.0 84 1.3 WNW 9 11 5 6 1018.5 1018.5 0.0
04/08:00pm 10.8 8.4 8.6 86 1.1 N 11 11 6 6 1018.5 1018.5 0.0
04/07:30pm 11.0 8.2 8.4 84 1.3 N 13 15 7 8 1018.0 1018.0 0.0
04/07:00pm 12.6 9.6 9.1 79 1.8 N 15 17 8 9 1017.2 1017.2 0.0
04/06:30pm 12.7 10.3 8.6 76 2.1 NNW 11 13 6 7 1016.0 1015.9 0.0
04/06:00pm 14.7 12.8 9.1 69 2.9 NNW 9 13 5 7 1015.9 1015.8 0.0
04/05:30pm 17.1 14.9 9.3 60 4.1 N 11 15 6 8 1015.9 1015.8 0.0
04/05:00pm 17.8 14.3 8.6 55 4.8 W 17 24 9 13 1015.9 1015.8 0.0
04/04:30pm 19.7 15.9 9.0 50 5.7 WNW 19 26 10 14 1015.6 1015.5 0.0
04/04:00pm 20.1 15.0 7.8 45 6.4 W 24 35 13 19 1015.9 1015.8 0.0
04/03:30pm 20.7 15.5 8.7 46 6.4 W 26 35 14 19 1016.0 1015.9 0.0
04/03:00pm 20.6 15.9 9.2 48 6.1 W 24 33 13 18 1016.0 1015.9 0.0
04/02:30pm 20.7 14.9 8.0 44 6.7 WNW 28 35 15 19 1015.9 1015.8 0.0
04/02:00pm 20.9 15.5 8.2 44 6.7 NW 26 39 14 21 1016.0 1015.9 0.0
04/01:30pm 20.5 15.6 8.5 46 6.3 WNW 24 35 13 19 1016.2 1016.1 0.0
04/01:00pm 20.4 16.7 9.3 49 5.9 NW 19 30 10 16 1016.3 1016.2 0.0
04/12:30pm 19.7 14.3 8.1 47 6.1 NW 26 35 14 19 1016.7 1016.6 0.0
04/12:00pm 19.6 15.0 8.0 47 6.0 NNW 22 32 12 17 1017.1 1017.1 0.0
04/11:30am 18.8 14.9 9.6 55 4.9 WNW 20 30 11 16 1017.5 1017.5 0.0
04/11:00am 17.9 13.6 9.5 58 4.4 WNW 22 28 12 15 1018.0 1018.0 0.0
04/10:30am 17.0 12.9 8.7 58 4.3 W 20 26 11 14 1018.2 1018.2 0.0
04/10:00am 15.9 11.8 7.7 58 4.1 W 19 24 10 13 1018.3 1018.3 0.0
04/09:30am 14.5 11.5 7.8 64 3.4 WNW 13 19 7 10 1018.3 1018.3 0.0
04/09:00am 11.8 9.4 7.1 73 2.3 NW 9 13 5 7 1018.4 1018.4 0.2
04/08:30am 8.2 5.6 6.0 86 1.0 W 9 13 5 7 1018.7 1018.7 0.2
04/08:00am 5.5 4.2 4.3 92 0.5 CALM 0 0 0 0 1018.4 1018.4 0.2
04/07:30am 3.0 0.9 2.0 93 0.4 N 2 6 1 3 1017.8 1017.8 0.2
04/07:00am 0.9 -2.2 0.0 94 0.3 NNE 6 7 3 4 1017.3 1017.3 0.2
04/06:30am 0.1 -3.2 -0.9 93 0.4 NNE 6 7 3 4 1016.8 1016.7 0.2
04/06:00am 0.6 -1.5 -0.5 92 0.4 CALM 0 0 0 0 1016.7 1016.6 0.2
04/05:30am 1.1 -0.9 0.1 93 0.4 CALM 0 0 0 0 1016.6 1016.5 0.2
04/05:00am 2.1 -0.8 1.2 94 0.3 SSE 6 7 3 4 1016.6 1016.5 0.2
04/04:30am 1.1 -0.9 -0.1 92 0.4 CALM 0 6 0 3 1016.7 1016.6 0.2
04/04:00am 1.6 -1.5 0.4 92 0.4 ENE 6 7 3 4 1016.7 1016.6 0.2
04/03:30am 2.1 -0.9 0.9 92 0.5 ENE 6 9 3 5 1016.8 1016.7 0.2
04/03:00am 2.0 0.1 0.8 92 0.5 CALM 0 0 0 0 1017.1 1017.1 0.2
04/02:30am 2.2 0.0 1.0 92 0.5 N 2 6 1 3 1017.3 1017.3 0.2
04/02:00am 1.9 -1.7 0.7 92 0.5 NE 9 11 5 6 1017.4 1017.4 0.2
04/01:30am 2.7 -0.7 1.7 93 0.4 NE 9 9 5 5 1017.7 1017.7 0.2
04/01:00am 2.9 -0.2 1.4 90 0.6 E 7 7 4 4 1018.1 1018.1 0.2
04/12:30am 3.0 0.1 1.5 90 0.6 NE 6 7 3 4 1018.5 1018.5 0.2
04/12:00am 3.2 0.1 1.6 89 0.6 NE 7 7 4 4 1019.0 1019.0 0.2
 
Date/Time
WST
Temp
°C
App
Temp
°C
Dew
Point
Rel
Hum
%
Delta-T
°C
Wind Press
QNH
hPa
Press
MSL
hPa
Rain
since 9 am
mm
Dir
 
Spd
km/h
Gust
km/h
Spd
kts
Gust
kts
03/11:30pm 4.6 3.1 2.8 88 0.7 CALM 0 0 0 0 1019.4 1019.3 0.2
03/11:00pm 5.1 3.7 3.3 88 0.8 CALM 0 0 0 0 1019.8 1019.7 0.2
03/10:30pm 4.7 2.8 2.6 86 0.9 NE 2 6 1 3 1020.0 1019.9 0.2
03/10:00pm 5.3 2.7 3.0 85 1.0 ENE 6 7 3 4 1020.2 1020.1 0.2
03/09:30pm 5.8 4.0 3.6 86 0.9 NE 2 7 1 4 1020.4 1020.3 0.2
03/09:00pm 6.5 4.1 4.2 85 1.0 ENE 6 7 3 4 1020.4 1020.3 0.2
03/08:30pm 7.2 4.8 4.3 82 1.3 ENE 6 7 3 4 1020.2 1020.1 0.2
03/08:00pm 8.3 5.8 4.9 79 1.5 ENE 7 9 4 5 1020.2 1020.1 0.2
03/07:30pm 10.2 8.1 5.6 73 2.1 ESE 6 7 3 4 1020.1 1020.0 0.2
03/07:00pm 11.9 9.4 4.6 61 3.3 ESE 7 9 4 5 1019.9 1019.8 0.2
03/06:30pm 14.9 11.8 3.7 47 5.2 ESE 9 11 5 6 1019.7 1019.6 0.2
03/06:00pm 16.0 13.2 3.1 42 5.9 E 7 9 4 5 1019.6 1019.5 0.2
03/05:30pm 17.0 14.5 4.7 44 5.9 ENE 7 9 4 5 1019.7 1019.6 0.2
03/05:00pm 18.6 16.1 4.0 38 7.0 NNE 6 9 3 5 1020.1 1020.0 0.2
03/04:30pm 19.4 16.1 2.3 32 8.0 NNE 9 17 5 9 1020.1 1020.0 0.2
03/04:00pm 20.1 18.4 3.8 34 7.8 SSW 2 6 1 3 1020.4 1020.3 0.2
03/03:30pm 19.0 16.4 4.0 37 7.2 ENE 7 11 4 6 1020.6 1020.5 0.2
03/03:00pm 18.7 16.2 3.7 37 7.1 N 6 17 3 9 1020.7 1020.6 0.2
03/02:30pm 19.6 16.8 3.3 34 7.8 NNW 7 17 4 9 1020.8 1020.8 0.2
03/02:00pm 19.5 16.2 4.4 37 7.3 N 11 20 6 11 1020.9 1020.9 0.2
03/01:30pm 19.1 16.2 4.5 38 7.1 NNE 9 17 5 9 1021.1 1021.1 0.2
03/01:00pm 18.6 15.0 4.8 40 6.7 NE 13 20 7 11 1021.6 1021.6 0.2
03/12:30pm 18.7 15.3 5.9 43 6.4 NE 13 20 7 11 1022.0 1022.0 0.2
03/12:00pm 17.5 13.4 6.1 47 5.6 NE 17 24 9 13 1022.3 1022.3 0.2
03/11:30am 16.7 12.3 6.5 51 5.1 ENE 19 28 10 15 1023.0 1023.0 0.2
03/11:00am 15.9 11.3 6.6 54 4.6 ENE 20 30 11 16 1023.3 1023.3 0.2
03/10:30am 14.4 9.0 6.5 59 3.9 ENE 24 32 13 17 1023.6 1023.6 0.2
03/10:00am 13.5 8.2 6.6 63 3.3 ENE 24 33 13 18 1023.9 1023.9 0.2
03/09:30am 12.0 7.1 6.9 71 2.5 E 22 28 12 15 1024.4 1024.3 0.0
03/09:00am 10.2 5.6 6.5 78 1.7 E 20 28 11 15 1024.7 1024.6 0.0
03/08:30am 9.1 4.7 6.4 83 1.3 E 19 28 10 15 1025.0 1025.0 0.0
03/08:00am 7.6 3.8 5.7 88 0.9 E 15 20 8 11 1025.1 1025.1 0.0
03/07:30am 6.1 2.5 5.1 93 0.4 ESE 13 17 7 9 1025.0 1025.0 0.0
03/07:00am 4.7 1.7 4.1 96 0.3 ESE 9 15 5 8 1024.9 1024.9 0.0
03/06:30am 3.7 0.1 3.1 96 0.2 E 11 15 6 8 1024.6 1024.5 0.0
03/06:00am 2.4 -1.0 1.7 95 0.3 E 9 11 5 6 1024.5 1024.4 0.0
03/05:30am 2.7 -0.3 1.8 94 0.4 E 7 7 4 4 1024.3 1024.2 0.0
03/05:00am 4.6 1.6 3.9 95 0.3 E 9 13 5 7 1024.3 1024.2 0.0
03/04:30am 4.9 1.9 4.0 94 0.4 ESE 9 11 5 6 1024.4 1024.3 0.0
03/04:00am 5.5 2.2 4.6 94 0.4 ESE 11 15 6 8 1024.1 1024.0 0.0
03/03:30am 5.9 2.3 5.0 94 0.4 ESE 13 17 7 9 1023.9 1023.9 0.0
03/03:00am 6.3 2.5 5.6 95 0.3 ESE 15 20 8 11 1024.2 1024.1 0.0
03/02:30am 6.0 2.5 5.4 96 0.3 ESE 13 17 7 9 1024.4 1024.3 0.0
03/02:00am 5.5 2.6 4.8 95 0.3 ESE 9 11 5 6 1024.8 1024.8 0.0
03/01:30am 4.3 1.7 3.4 94 0.4 ENE 6 7 3 4 1025.1 1025.1 0.0
03/01:00am 5.5 3.0 4.5 93 0.4 ESE 7 9 4 5 1025.2 1025.2 0.0
03/12:30am 6.2 3.4 5.0 92 0.5 ESE 9 11 5 6 1025.3 1025.3 0.0
03/12:00am 7.5 4.5 6.0 90 0.7 ESE 11 15 6 8 1025.4 1025.4 0.0
 
Date/Time
WST
Temp
°C
App
Temp
°C
Dew
Point
Rel
Hum
%
Delta-T
°C
Wind Press
QNH
hPa
Press
MSL
hPa
Rain
since 9 am
mm
Dir
 
Spd
km/h
Gust
km/h
Spd
kts
Gust
kts
02/11:30pm 7.8 4.9 6.3 90 0.7 SE 11 17 6 9 1025.4 1025.4 0.0
02/11:00pm 8.0 4.6 6.1 88 0.9 SE 13 15 7 8 1025.4 1025.4 0.0
02/10:30pm 8.4 5.4 6.2 86 1.0 SE 11 15 6 8 1025.4 1025.4 0.0
02/10:00pm 8.7 5.7 6.2 84 1.2 SE 11 15 6 8 1025.5 1025.5 0.0
02/09:30pm 9.2 6.3 6.3 82 1.4 SE 11 15 6 8 1025.6 1025.6 0.0
02/09:00pm 10.5 7.6 6.6 77 1.8 ESE 11 13 6 7 1025.8 1025.8 0.0
02/08:30pm 10.7 7.8 6.5 75 2.0 ESE 11 15 6 8 1025.9 1025.9 0.0
02/08:00pm 10.8 7.9 6.4 74 2.1 ESE 11 15 6 8 1025.8 1025.8 0.0
02/07:30pm 11.0 8.0 6.2 72 2.3 ESE 11 15 6 8 1025.8 1025.8 0.0
02/07:00pm 11.1 8.4 5.8 70 2.5 ESE 9 11 5 6 1025.6 1025.6 0.0
02/06:30pm 11.2 8.5 5.7 69 2.6 ESE 9 11 5 6 1025.6 1025.6 0.0
02/06:00pm 11.5 8.8 5.4 66 2.8 ESE 9 13 5 7 1025.4 1025.4 0.0
02/05:30pm 11.8 8.6 5.2 64 3.1 ESE 11 15 6 8 1025.4 1025.4 0.0
02/05:00pm 12.0 8.4 5.2 63 3.2 ESE 13 20 7 11 1025.1 1025.1 0.0
02/04:30pm 12.1 7.7 5.0 62 3.3 E 17 26 9 14 1024.9 1024.9 0.0
02/04:00pm 12.3 7.9 4.5 59 3.6 E 17 24 9 13 1024.9 1024.9 0.0
02/03:30pm 12.5 8.2 5.2 61 3.4 E 17 22 9 12 1024.9 1024.9 0.0
02/03:00pm 12.4 8.0 4.9 60 3.5 ESE 17 24 9 13 1025.0 1025.0 0.0
02/02:30pm 12.2 7.7 4.4 59 3.6 E 17 28 9 15 1025.0 1025.0 0.0
02/02:00pm 12.2 7.1 3.9 57 3.7 E 20 28 11 15 1025.1 1025.1 0.0

Other Formats:

Comma delimited format used in spreadsheet applications
http://www.bom.gov.au/fwo/IDW60801/IDW60801.95625.axf

JavaScript Object Notation format (JSON) in row-major order
http://www.bom.gov.au/fwo/IDW60801/IDW60801.95625.json